createdAt,value
2022-08-12T00:00:21.466Z,20.77
2022-08-12T00:01:26.922Z,20.80
2022-08-12T00:02:21.321Z,20.75
2022-08-12T00:03:21.439Z,20.72
2022-08-12T00:04:21.168Z,20.72
2022-08-12T00:05:21.093Z,20.77
2022-08-12T00:06:21.023Z,20.77
2022-08-12T00:07:20.944Z,20.72
2022-08-12T00:08:30.844Z,20.69
2022-08-12T00:09:25.726Z,20.70
2022-08-12T00:10:20.723Z,20.70
2022-08-12T00:11:20.646Z,20.65
2022-08-12T00:12:20.577Z,20.69
2022-08-12T00:13:20.499Z,20.59
2022-08-12T00:14:20.425Z,20.59
2022-08-12T00:15:20.350Z,20.67
2022-08-12T00:16:20.273Z,20.67
2022-08-12T00:17:21.947Z,20.67
2022-08-12T00:18:20.133Z,20.67
2022-08-12T00:19:20.050Z,20.58
2022-08-12T00:20:19.978Z,20.62
2022-08-12T00:21:19.903Z,20.58
2022-08-12T00:22:19.842Z,20.52
2022-08-12T00:23:19.758Z,20.52
2022-08-12T00:24:19.681Z,20.52
2022-08-12T00:25:19.604Z,20.47
2022-08-12T00:26:22.909Z,20.40
2022-08-12T00:27:19.460Z,20.40
2022-08-12T00:28:19.379Z,20.37
2022-08-12T00:29:19.306Z,20.24
2022-08-12T00:30:19.235Z,20.21
2022-08-12T00:31:19.154Z,20.25
2022-08-12T00:32:36.199Z,20.21
2022-08-12T00:33:19.011Z,20.24
2022-08-12T00:34:18.935Z,20.13
2022-08-12T00:35:18.863Z,20.13
2022-08-12T00:36:34.926Z,20.09
2022-08-12T00:37:18.709Z,20.07
2022-08-12T00:38:18.638Z,20.03
2022-08-12T00:39:18.624Z,20.09
2022-08-12T00:40:18.483Z,20.07
2022-08-12T00:41:18.409Z,20.07
2022-08-12T00:42:18.339Z,20.07
2022-08-12T00:43:18.265Z,20.04
2022-08-12T00:44:18.187Z,20.06
2022-08-12T00:45:18.109Z,20.09
2022-08-12T00:46:18.037Z,20.04
2022-08-12T00:47:25.583Z,19.92
2022-08-12T00:48:17.886Z,19.96
2022-08-12T00:49:17.819Z,19.91
2022-08-12T00:50:17.738Z,20.02
2022-08-12T00:51:17.657Z,20.02
2022-08-12T00:52:17.587Z,19.91
2022-08-12T00:53:19.255Z,19.85
2022-08-12T00:54:17.438Z,19.84
2022-08-12T00:55:17.361Z,19.81
2022-08-12T00:56:17.286Z,19.88
2022-08-12T00:57:17.219Z,19.92
2022-08-12T00:58:17.144Z,19.82
2022-08-12T00:59:17.070Z,19.84
2022-08-12T01:00:17.012Z,19.85
2022-08-12T01:01:16.951Z,19.84
2022-08-12T01:02:16.906Z,19.82
2022-08-12T01:03:16.762Z,19.79
2022-08-12T01:04:16.715Z,19.85
2022-08-12T01:05:16.611Z,19.66
2022-08-12T01:06:16.610Z,19.66
2022-08-12T01:07:16.466Z,19.70
2022-08-12T01:08:16.388Z,19.63
2022-08-12T01:09:16.314Z,19.64
2022-08-12T01:10:16.239Z,19.62
2022-08-12T01:11:16.161Z,19.70
2022-08-12T01:12:16.087Z,19.81
2022-08-12T01:13:19.102Z,19.73
2022-08-12T01:14:15.940Z,19.77
2022-08-12T01:15:15.870Z,19.76
2022-08-12T01:16:15.787Z,19.82
2022-08-12T01:17:15.720Z,19.81
2022-08-12T01:18:15.639Z,19.77
2022-08-12T01:19:15.571Z,19.77
2022-08-12T01:20:15.488Z,19.73
2022-08-12T01:21:15.412Z,19.77
2022-08-12T01:22:15.341Z,19.85
2022-08-12T01:23:15.263Z,19.86
2022-08-12T01:24:22.947Z,19.85
2022-08-12T01:25:15.114Z,19.82
2022-08-12T01:26:15.039Z,19.85
2022-08-12T01:27:14.963Z,19.86
2022-08-12T01:28:14.885Z,19.85
2022-08-12T01:29:14.825Z,19.86
2022-08-12T01:30:14.739Z,19.76
2022-08-12T01:31:16.504Z,19.84
2022-08-12T01:32:14.694Z,19.77
2022-08-12T01:33:14.513Z,19.79
2022-08-12T01:34:35.959Z,19.82
2022-08-12T01:35:14.365Z,19.74
2022-08-12T01:36:14.289Z,19.77
2022-08-12T01:37:14.219Z,19.76
2022-08-12T01:38:14.138Z,19.84
2022-08-12T01:39:14.111Z,19.77
2022-08-12T01:40:34.258Z,19.85
2022-08-12T01:41:13.914Z,19.74
2022-08-12T01:42:13.842Z,19.77
2022-08-12T01:43:13.762Z,19.76
2022-08-12T01:44:13.689Z,19.77
2022-08-12T01:45:13.610Z,19.79
2022-08-12T01:46:13.538Z,19.81
2022-08-12T01:47:13.466Z,19.77
2022-08-12T01:48:13.390Z,19.82
2022-08-12T01:49:13.314Z,19.81
2022-08-12T01:50:13.239Z,19.74
2022-08-12T01:51:13.162Z,19.71
2022-08-12T01:52:20.331Z,19.81
2022-08-12T01:53:13.018Z,19.73
2022-08-12T01:54:12.940Z,19.76
2022-08-12T01:55:12.864Z,19.74
2022-08-12T01:56:12.782Z,19.63
2022-08-12T01:57:12.713Z,19.76
2022-08-12T01:58:12.640Z,19.70
2022-08-12T01:59:12.570Z,19.70
2022-08-12T02:00:12.489Z,19.66
2022-08-12T02:01:12.489Z,19.59
2022-08-12T02:02:12.340Z,19.70
2022-08-12T02:03:12.259Z,19.66
2022-08-12T02:04:12.190Z,19.63
2022-08-12T02:05:12.112Z,19.62
2022-08-12T02:06:12.044Z,19.58
2022-08-12T02:07:11.961Z,19.58
2022-08-12T02:08:11.888Z,19.64
2022-08-12T02:09:11.807Z,19.62
2022-08-12T02:10:51.082Z,19.73
2022-08-12T02:11:11.656Z,19.66
2022-08-12T02:12:11.587Z,19.66
2022-08-12T02:13:11.508Z,19.70
2022-08-12T02:14:11.434Z,19.71
2022-08-12T02:15:11.360Z,19.70
2022-08-12T02:16:11.284Z,19.66
2022-08-12T02:17:11.210Z,19.71
2022-08-12T02:18:11.135Z,19.69
2022-08-12T02:19:13.691Z,19.64
2022-08-12T02:20:10.977Z,19.67
2022-08-12T02:21:10.910Z,19.58
2022-08-12T02:22:10.839Z,19.58
2022-08-12T02:23:10.760Z,19.64
2022-08-12T02:24:10.683Z,19.58
2022-08-12T02:25:10.607Z,19.66
2022-08-12T02:26:10.535Z,19.59
2022-08-12T02:27:10.458Z,19.59
2022-08-12T02:28:10.379Z,19.52
2022-08-12T02:29:10.319Z,19.51
2022-08-12T02:30:10.245Z,19.51
2022-08-12T02:31:10.166Z,19.49
2022-08-12T02:32:10.105Z,19.58
2022-08-12T02:33:10.006Z,19.59
2022-08-12T02:34:09.929Z,19.56
2022-08-12T02:35:09.856Z,19.51
2022-08-12T02:36:09.778Z,19.51
2022-08-12T02:37:09.706Z,19.58
2022-08-12T02:38:09.625Z,19.41
2022-08-12T02:39:09.558Z,19.41
2022-08-12T02:40:09.481Z,19.39
2022-08-12T02:41:09.403Z,19.37
2022-08-12T02:42:09.331Z,19.40
2022-08-12T02:43:09.254Z,19.37
2022-08-12T02:44:09.179Z,19.27
2022-08-12T02:45:09.121Z,19.31
2022-08-12T02:46:13.383Z,19.24
2022-08-12T02:47:59.980Z,19.27
2022-08-12T02:48:08.875Z,19.34
2022-08-12T02:49:08.806Z,19.30
2022-08-12T02:50:08.728Z,19.31
2022-08-12T02:51:08.650Z,19.26
2022-08-12T02:52:08.580Z,19.27
2022-08-12T02:53:08.503Z,19.29
2022-08-12T02:54:08.425Z,19.18
2022-08-12T02:55:08.348Z,19.30
2022-08-12T02:56:08.276Z,19.14
2022-08-12T02:57:08.200Z,19.19
2022-08-12T02:58:09.259Z,19.19
2022-08-12T02:59:08.049Z,19.14
2022-08-12T03:00:07.970Z,19.07
2022-08-12T03:01:07.918Z,19.02
2022-08-12T03:02:07.824Z,18.90
2022-08-12T03:03:07.747Z,18.86
2022-08-12T03:04:15.297Z,18.77
2022-08-12T03:05:07.593Z,18.81
2022-08-12T03:06:07.522Z,18.84
2022-08-12T03:07:07.443Z,18.70
2022-08-12T03:08:07.368Z,18.66
2022-08-12T03:09:07.303Z,18.56
2022-08-12T03:10:13.016Z,18.44
2022-08-12T03:11:14.143Z,18.37
2022-08-12T03:12:07.067Z,18.33
2022-08-12T03:13:07.009Z,18.22
2022-08-12T03:14:06.917Z,18.18
2022-08-12T03:15:06.841Z,18.19
2022-08-12T03:16:06.805Z,18.19
2022-08-12T03:17:06.689Z,18.10
2022-08-12T03:18:27.348Z,18.20
2022-08-12T03:19:06.534Z,18.10
2022-08-12T03:20:10.609Z,18.18
2022-08-12T03:21:06.385Z,18.16
2022-08-12T03:22:09.336Z,18.15
2022-08-12T03:23:06.233Z,18.15
2022-08-12T03:24:06.161Z,18.16
2022-08-12T03:25:06.089Z,18.22
2022-08-12T03:26:06.010Z,18.15
2022-08-12T03:27:05.925Z,18.15
2022-08-12T03:28:05.860Z,18.25
2022-08-12T03:29:05.781Z,18.22
2022-08-12T03:30:05.716Z,18.29
2022-08-12T03:31:05.626Z,18.34
2022-08-12T03:32:05.546Z,18.26
2022-08-12T03:33:05.479Z,18.20
2022-08-12T03:34:05.393Z,18.25
2022-08-12T03:35:05.324Z,18.29
2022-08-12T03:36:05.245Z,18.28
2022-08-12T03:37:05.170Z,18.28
2022-08-12T03:38:05.096Z,18.28
2022-08-12T03:39:05.014Z,18.28
2022-08-12T03:40:05.045Z,18.34
2022-08-12T03:41:04.867Z,18.29
2022-08-12T03:42:04.788Z,18.23
2022-08-12T03:43:04.713Z,18.13
2022-08-12T03:44:04.646Z,18.18
2022-08-12T03:45:04.565Z,18.18
2022-08-12T03:46:04.493Z,18.07
2022-08-12T03:47:04.409Z,18.07
2022-08-12T03:48:04.336Z,18.07
2022-08-12T03:49:04.262Z,18.08
2022-08-12T03:50:04.184Z,18.13
2022-08-12T03:51:04.106Z,18.10
2022-08-12T03:52:04.044Z,18.23
2022-08-12T03:53:03.960Z,18.10
2022-08-12T03:54:03.881Z,18.07
2022-08-12T03:55:03.801Z,17.95
2022-08-12T03:56:03.729Z,17.90
2022-08-12T03:57:03.667Z,17.87
2022-08-12T03:58:03.580Z,17.86
2022-08-12T03:59:03.500Z,17.80
2022-08-12T04:00:03.424Z,17.78
2022-08-12T04:01:03.407Z,17.82
2022-08-12T04:02:03.268Z,17.89
2022-08-12T04:03:03.194Z,17.85
2022-08-12T04:04:03.117Z,17.83
2022-08-12T04:05:03.043Z,17.82
2022-08-12T04:06:02.969Z,17.82
2022-08-12T04:07:02.888Z,17.86
2022-08-12T04:08:02.811Z,17.82
2022-08-12T04:09:02.743Z,17.92
2022-08-12T04:10:02.668Z,17.94
2022-08-12T04:11:02.587Z,17.97
2022-08-12T04:12:02.512Z,17.92
2022-08-12T04:13:02.430Z,17.90
2022-08-12T04:14:02.356Z,17.95
2022-08-12T04:15:02.313Z,17.90
2022-08-12T04:16:02.215Z,17.94
2022-08-12T04:17:02.131Z,17.94
2022-08-12T04:18:07.511Z,17.95
2022-08-12T04:19:01.974Z,17.95
2022-08-12T04:20:01.905Z,17.95
2022-08-12T04:21:01.823Z,17.90
2022-08-12T04:22:03.688Z,17.92
2022-08-12T04:23:01.669Z,17.94
2022-08-12T04:24:01.595Z,17.94
2022-08-12T04:25:01.860Z,18.01
2022-08-12T04:26:01.442Z,17.92
2022-08-12T04:27:01.365Z,17.94
2022-08-12T04:28:12.040Z,17.90
2022-08-12T04:29:01.218Z,17.92
2022-08-12T04:30:20.997Z,17.90
2022-08-12T04:31:01.066Z,17.87
2022-08-12T04:32:00.991Z,17.97
2022-08-12T04:33:00.908Z,17.98
2022-08-12T04:34:00.848Z,17.94
2022-08-12T04:35:00.771Z,17.98
2022-08-12T04:36:00.682Z,17.87
2022-08-12T04:37:00.604Z,17.95
2022-08-12T04:38:01.103Z,17.94
2022-08-12T04:39:00.452Z,17.92
2022-08-12T04:40:00.377Z,17.95
2022-08-12T04:41:00.301Z,17.97
2022-08-12T04:42:00.247Z,18.04
2022-08-12T04:43:00.150Z,18.04
2022-08-12T04:44:02.002Z,18.05
2022-08-12T04:45:00.019Z,17.98
2022-08-12T04:45:59.919Z,18.00
2022-08-12T04:46:59.840Z,17.98
2022-08-12T04:47:59.764Z,18.03
2022-08-12T04:48:59.688Z,18.03
2022-08-12T04:49:59.617Z,18.01
2022-08-12T04:50:59.538Z,18.07
2022-08-12T04:51:59.758Z,18.07
2022-08-12T04:52:59.388Z,18.15
2022-08-12T04:53:59.313Z,17.97
2022-08-12T04:54:59.235Z,18.04
2022-08-12T04:55:59.161Z,18.03
2022-08-12T04:57:04.846Z,18.05
2022-08-12T04:57:59.007Z,18.03
2022-08-12T04:58:58.930Z,18.05
2022-08-12T04:59:58.851Z,17.97
2022-08-12T05:00:58.779Z,18.11
2022-08-12T05:01:58.746Z,18.11
2022-08-12T05:02:58.701Z,18.05
2022-08-12T05:03:58.543Z,18.04
2022-08-12T05:05:01.180Z,17.98
2022-08-12T05:05:58.414Z,18.03
2022-08-12T05:06:58.338Z,18.10
2022-08-12T05:07:58.245Z,18.07
2022-08-12T05:08:58.165Z,18.04
2022-08-12T05:10:01.793Z,18.08
2022-08-12T05:10:58.017Z,18.18
2022-08-12T05:11:57.937Z,18.08
2022-08-12T05:12:57.860Z,18.10
2022-08-12T05:13:57.790Z,18.16
2022-08-12T05:14:57.713Z,18.19
2022-08-12T05:16:04.540Z,18.23
2022-08-12T05:16:57.557Z,18.25
2022-08-12T05:18:00.233Z,18.33
2022-08-12T05:18:57.402Z,18.31
2022-08-12T05:19:58.020Z,18.34
2022-08-12T05:20:57.256Z,18.33
2022-08-12T05:21:57.178Z,18.43
2022-08-12T05:22:58.156Z,18.37
2022-08-12T05:23:57.022Z,18.38
2022-08-12T05:24:56.956Z,18.35
2022-08-12T05:25:56.949Z,18.38
2022-08-12T05:26:56.793Z,18.41
2022-08-12T05:27:58.413Z,18.44
2022-08-12T05:28:56.642Z,18.50
2022-08-12T05:30:06.608Z,18.53
2022-08-12T05:30:56.490Z,18.55
2022-08-12T05:31:56.421Z,18.62
2022-08-12T05:32:59.904Z,18.63
2022-08-12T05:33:56.262Z,18.66
2022-08-12T05:34:56.186Z,18.70
2022-08-12T05:35:56.111Z,18.74
2022-08-12T05:36:56.041Z,18.78
2022-08-12T05:37:55.962Z,18.80
2022-08-12T05:38:55.894Z,18.89
2022-08-12T05:39:55.863Z,18.84
2022-08-12T05:40:55.730Z,18.84
2022-08-12T05:41:55.662Z,18.93
2022-08-12T05:42:55.580Z,18.88
2022-08-12T05:43:55.507Z,19.04
2022-08-12T05:44:55.430Z,18.92
2022-08-12T05:45:55.355Z,19.00
2022-08-12T05:46:55.274Z,18.92
2022-08-12T05:47:55.204Z,19.00
2022-08-12T05:48:55.126Z,19.00
2022-08-12T05:49:55.055Z,19.00
2022-08-12T05:50:54.976Z,19.08
2022-08-12T05:51:54.900Z,19.08
2022-08-12T05:52:54.827Z,19.11
2022-08-12T05:53:54.748Z,19.11
2022-08-12T05:54:57.861Z,19.15
2022-08-12T05:55:54.594Z,19.19
2022-08-12T05:56:54.516Z,19.19
2022-08-12T05:57:54.445Z,19.24
2022-08-12T05:58:54.362Z,19.26
2022-08-12T05:59:54.291Z,19.34
2022-08-12T06:00:54.229Z,19.27
2022-08-12T06:02:10.686Z,19.31
2022-08-12T06:02:54.094Z,19.37
2022-08-12T06:03:54.003Z,19.45
2022-08-12T06:04:53.913Z,19.40
2022-08-12T06:05:54.783Z,19.44
2022-08-12T06:06:53.840Z,19.49
2022-08-12T06:08:01.955Z,19.52
2022-08-12T06:08:53.606Z,19.49
2022-08-12T06:09:53.539Z,19.55
2022-08-12T06:10:53.460Z,19.48
2022-08-12T06:11:59.892Z,19.63
2022-08-12T06:12:53.309Z,19.63
2022-08-12T06:13:54.679Z,19.62
2022-08-12T06:14:53.157Z,19.59
2022-08-12T06:15:53.077Z,19.58
2022-08-12T06:16:53.010Z,19.73
2022-08-12T06:17:52.928Z,19.66
2022-08-12T06:18:52.858Z,19.63
2022-08-12T06:20:22.848Z,19.67
2022-08-12T06:20:53.794Z,19.74
2022-08-12T06:21:52.625Z,19.69
2022-08-12T06:22:55.220Z,19.69
2022-08-12T06:23:52.475Z,19.63
2022-08-12T06:24:52.399Z,19.79
2022-08-12T06:25:52.324Z,19.81
2022-08-12T06:26:52.245Z,19.73
2022-08-12T06:28:07.536Z,19.82
2022-08-12T06:28:52.098Z,19.85
2022-08-12T06:30:10.104Z,19.82
2022-08-12T06:31:24.442Z,19.91
2022-08-12T06:31:51.873Z,19.88
2022-08-12T06:33:04.283Z,19.95
2022-08-12T06:34:01.091Z,20.00
2022-08-12T06:35:25.284Z,20.06
2022-08-12T06:35:51.876Z,20.09
2022-08-12T06:36:51.496Z,20.13
2022-08-12T06:37:56.620Z,20.18
2022-08-12T06:38:51.342Z,20.19
2022-08-12T06:39:51.299Z,20.26
2022-08-12T06:40:51.194Z,20.21
2022-08-12T06:42:30.566Z,20.21
2022-08-12T06:42:51.045Z,20.34
2022-08-12T06:44:04.708Z,20.29
2022-08-12T06:44:50.894Z,20.25
2022-08-12T06:45:50.818Z,20.37
2022-08-12T06:46:50.742Z,20.34
2022-08-12T06:47:50.667Z,20.44
2022-08-12T06:48:50.593Z,20.44
2022-08-12T06:49:50.515Z,20.55
2022-08-12T06:50:50.441Z,20.52
2022-08-12T06:51:56.092Z,20.62
2022-08-12T06:52:50.285Z,20.67
2022-08-12T06:53:50.215Z,20.74
2022-08-12T06:54:50.135Z,20.70
2022-08-12T06:55:58.149Z,20.69
2022-08-12T06:58:05.549Z,20.69
2022-08-12T06:58:06.683Z,20.74
2022-08-12T06:58:49.834Z,20.75
2022-08-12T06:59:49.761Z,20.80
2022-08-12T07:00:49.764Z,20.80
2022-08-12T07:01:51.629Z,20.82
2022-08-12T07:02:49.540Z,20.85
2022-08-12T07:03:49.464Z,20.78
2022-08-12T07:04:49.390Z,20.84
2022-08-12T07:05:49.313Z,20.82
2022-08-12T07:06:49.238Z,20.95
2022-08-12T07:07:49.162Z,20.96
2022-08-12T07:08:49.090Z,21.09
2022-08-12T07:10:04.375Z,21.15
2022-08-12T07:10:48.938Z,21.12
2022-08-12T07:11:50.952Z,21.18
2022-08-12T07:12:48.785Z,21.21
2022-08-12T07:14:11.520Z,21.25
2022-08-12T07:14:49.073Z,21.27
2022-08-12T07:15:48.561Z,21.30
2022-08-12T07:16:48.486Z,21.33
2022-08-12T07:17:48.411Z,21.36
2022-08-12T07:18:48.337Z,21.37
2022-08-12T07:19:48.623Z,21.48
2022-08-12T07:20:53.060Z,21.48
2022-08-12T07:22:01.668Z,21.48
2022-08-12T07:22:48.031Z,21.48
2022-08-12T07:23:47.957Z,21.52
2022-08-12T07:24:47.884Z,21.46
2022-08-12T07:25:47.812Z,21.57
2022-08-12T07:26:47.734Z,21.57
2022-08-12T07:27:47.661Z,21.62
2022-08-12T07:28:47.588Z,21.64
2022-08-12T07:29:57.812Z,21.69
2022-08-12T07:30:47.432Z,21.67
2022-08-12T07:31:47.361Z,21.69
2022-08-12T07:32:47.289Z,21.72
2022-08-12T07:33:47.214Z,21.73
2022-08-12T07:34:47.132Z,21.73
2022-08-12T07:35:47.057Z,21.79
2022-08-12T07:36:46.985Z,21.80
2022-08-12T07:37:46.916Z,21.75
2022-08-12T07:38:46.837Z,21.88
2022-08-12T07:39:50.745Z,21.82
2022-08-12T07:40:46.683Z,21.82
2022-08-12T07:41:46.617Z,21.85
2022-08-12T07:42:46.548Z,21.99
2022-08-12T07:43:46.461Z,21.96
2022-08-12T07:44:46.387Z,21.96
2022-08-12T07:45:46.314Z,22.02
2022-08-12T07:46:46.244Z,22.07
2022-08-12T07:47:46.167Z,22.04
2022-08-12T07:48:46.095Z,22.13
2022-08-12T07:50:04.390Z,22.15
2022-08-12T07:50:45.938Z,22.13
2022-08-12T07:51:45.866Z,22.06
2022-08-12T07:52:45.803Z,22.15
2022-08-12T07:53:48.658Z,22.20
2022-08-12T07:54:45.639Z,22.20
2022-08-12T07:55:45.566Z,22.20
2022-08-12T07:56:45.497Z,22.17
2022-08-12T07:57:45.418Z,22.26
2022-08-12T07:58:47.244Z,22.30
2022-08-12T07:59:45.273Z,22.33
2022-08-12T08:00:45.193Z,22.36
2022-08-12T08:01:45.213Z,22.38
2022-08-12T08:02:45.050Z,22.33
2022-08-12T08:03:49.033Z,22.38
2022-08-12T08:04:44.896Z,22.35
2022-08-12T08:05:44.826Z,22.39
2022-08-12T08:06:44.765Z,22.41
2022-08-12T08:07:44.677Z,22.47
2022-08-12T08:08:44.596Z,22.47
2022-08-12T08:09:44.529Z,22.44
2022-08-12T08:10:44.451Z,22.55
2022-08-12T08:11:44.378Z,22.50
2022-08-12T08:12:44.304Z,22.62
2022-08-12T08:13:44.231Z,22.60
2022-08-12T08:14:44.151Z,22.62
2022-08-12T08:16:02.642Z,22.65
2022-08-12T08:16:44.001Z,22.62
2022-08-12T08:17:43.932Z,22.60
2022-08-12T08:18:43.859Z,22.62
2022-08-12T08:20:02.902Z,22.62
2022-08-12T08:20:43.705Z,22.47
2022-08-12T08:21:43.631Z,22.50
2022-08-12T08:22:43.635Z,22.50
2022-08-12T08:23:43.486Z,22.51
2022-08-12T08:24:43.405Z,22.48
2022-08-12T08:25:43.341Z,22.51
2022-08-12T08:26:43.262Z,22.50
2022-08-12T08:27:43.185Z,22.43
2022-08-12T08:28:43.116Z,22.47
2022-08-12T08:29:43.037Z,22.43
2022-08-12T08:30:42.967Z,22.54
2022-08-12T08:31:45.466Z,22.48
2022-08-12T08:32:42.811Z,22.55
2022-08-12T08:34:05.532Z,22.63
2022-08-12T08:34:54.474Z,22.68
2022-08-12T08:35:46.825Z,22.66
2022-08-12T08:36:42.513Z,22.68
2022-08-12T08:37:42.442Z,22.72
2022-08-12T08:38:42.374Z,22.70
2022-08-12T08:39:42.445Z,22.72
2022-08-12T08:40:42.223Z,22.81
2022-08-12T08:42:14.694Z,22.80
2022-08-12T08:42:42.242Z,22.81
2022-08-12T08:43:43.946Z,22.80
2022-08-12T08:44:41.956Z,22.81
2022-08-12T08:45:41.865Z,22.78
2022-08-12T08:46:41.781Z,22.81
2022-08-12T08:47:41.705Z,22.81
2022-08-12T08:48:41.630Z,22.87
2022-08-12T08:49:41.555Z,22.87
2022-08-12T08:50:41.486Z,22.93
2022-08-12T08:51:41.410Z,22.98
2022-08-12T08:52:41.346Z,23.02
2022-08-12T08:53:41.263Z,23.06
2022-08-12T08:54:41.185Z,23.20
2022-08-12T08:56:03.593Z,23.23
2022-08-12T08:56:41.037Z,23.23
2022-08-12T08:57:43.097Z,23.21
2022-08-12T08:58:40.884Z,23.39
2022-08-12T08:59:40.814Z,23.31
2022-08-12T09:00:40.737Z,23.41
2022-08-12T09:01:40.686Z,23.48
2022-08-12T09:02:40.714Z,23.55
2022-08-12T09:05:10.024Z,23.56
2022-08-12T09:05:12.131Z,23.62
2022-08-12T09:06:01.655Z,23.71
2022-08-12T09:06:41.853Z,23.69
2022-08-12T09:07:51.642Z,23.76
2022-08-12T09:08:40.147Z,23.84
2022-08-12T09:10:45.122Z,23.88
2022-08-12T09:12:07.059Z,23.99
2022-08-12T09:12:39.853Z,24.01
2022-08-12T09:14:39.711Z,24.01
2022-08-12T09:15:41.642Z,24.01
2022-08-12T09:16:42.593Z,24.06
2022-08-12T09:17:42.368Z,24.17
2022-08-12T09:18:41.334Z,24.13
2022-08-12T09:19:39.343Z,24.17
2022-08-12T09:20:39.282Z,24.16
2022-08-12T09:21:54.186Z,24.23
2022-08-12T09:22:39.123Z,24.20
2022-08-12T09:23:59.100Z,24.16
2022-08-12T09:24:38.977Z,24.23
2022-08-12T09:25:38.907Z,24.32
2022-08-12T09:26:46.623Z,24.35
2022-08-12T09:28:04.316Z,24.53
2022-08-12T09:28:38.681Z,24.54
2022-08-12T09:30:11.288Z,24.63
2022-08-12T09:30:41.786Z,24.68
2022-08-12T09:32:03.968Z,24.60
2022-08-12T09:33:05.034Z,24.68
2022-08-12T09:34:26.030Z,24.63
2022-08-12T09:34:42.077Z,24.61
2022-08-12T09:35:43.020Z,24.80
2022-08-12T09:37:01.186Z,24.76
2022-08-12T09:37:58.366Z,24.70
2022-08-12T09:38:37.956Z,24.74
2022-08-12T09:40:00.957Z,24.69
2022-08-12T09:41:03.835Z,24.69
2022-08-12T09:42:32.585Z,24.74
2022-08-12T09:42:43.397Z,24.66
2022-08-12T09:43:37.715Z,24.69
2022-08-12T09:44:39.492Z,24.63
2022-08-12T09:46:06.670Z,24.68
2022-08-12T09:46:37.427Z,24.69
2022-08-12T09:47:37.334Z,24.68
2022-08-12T09:48:40.249Z,24.63
2022-08-12T09:49:41.997Z,24.69
2022-08-12T09:50:37.079Z,24.69
2022-08-12T09:51:38.297Z,24.86
2022-08-12T09:52:36.939Z,24.89
2022-08-12T09:53:39.574Z,24.89
2022-08-12T09:54:36.947Z,24.91
2022-08-12T09:56:05.945Z,25.03
2022-08-12T09:56:59.257Z,24.95
2022-08-12T09:58:46.417Z,24.96
2022-08-12T09:58:58.637Z,25.10
2022-08-12T10:00:16.689Z,25.25
2022-08-12T10:00:48.366Z,25.25
2022-08-12T10:02:43.227Z,25.21
2022-08-12T10:02:44.263Z,25.13
2022-08-12T10:03:36.198Z,25.26
2022-08-12T10:04:36.095Z,25.11
2022-08-12T10:06:27.638Z,25.10
2022-08-12T10:06:53.785Z,25.07
2022-08-12T10:07:39.736Z,25.17
2022-08-12T10:08:35.768Z,25.21
2022-08-12T10:09:57.267Z,25.21
2022-08-12T10:10:40.408Z,25.06
2022-08-12T10:12:10.231Z,25.10
2022-08-12T10:12:35.480Z,25.07
2022-08-12T10:13:38.843Z,25.21
2022-08-12T10:14:37.110Z,25.13
2022-08-12T10:16:01.830Z,25.25
2022-08-12T10:16:39.267Z,25.16
2022-08-12T10:17:35.118Z,25.18
2022-08-12T10:18:35.586Z,25.22
2022-08-12T10:19:36.540Z,25.28
2022-08-12T10:20:34.900Z,25.31
2022-08-12T10:21:36.468Z,25.38
2022-08-12T10:22:39.007Z,25.40
2022-08-12T10:23:39.417Z,25.40
2022-08-12T10:24:34.604Z,25.41
2022-08-12T10:26:18.334Z,25.40
2022-08-12T10:26:38.999Z,25.28
2022-08-12T10:27:39.360Z,25.44
2022-08-12T10:28:34.321Z,25.41
2022-08-12T10:30:37.779Z,25.38
2022-08-12T10:30:39.961Z,25.47
2022-08-12T10:32:19.913Z,25.36
2022-08-12T10:32:43.673Z,25.48
2022-08-12T10:33:33.951Z,25.58
2022-08-12T10:34:33.882Z,25.63
2022-08-12T10:35:37.878Z,25.65
2022-08-12T10:36:39.786Z,25.66
2022-08-12T10:38:34.680Z,25.66
2022-08-12T10:38:41.343Z,25.62
2022-08-12T10:40:05.628Z,25.77
2022-08-12T10:40:34.115Z,25.77
2022-08-12T10:41:57.840Z,25.78
2022-08-12T10:42:33.297Z,25.73
2022-08-12T10:43:54.848Z,25.73
2022-08-12T10:44:33.154Z,25.80
2022-08-12T10:45:33.085Z,25.85
2022-08-12T10:46:33.009Z,25.87
2022-08-12T10:48:15.887Z,25.87
2022-08-12T10:48:33.963Z,25.96
2022-08-12T10:50:04.821Z,25.98
2022-08-12T10:50:56.596Z,26.05
2022-08-12T10:52:03.019Z,26.15
2022-08-12T10:52:37.970Z,26.13
2022-08-12T10:53:46.114Z,26.21
2022-08-12T10:54:32.430Z,26.28
2022-08-12T10:55:32.358Z,26.26
2022-08-12T10:56:34.929Z,26.40
2022-08-12T10:58:14.317Z,26.41
2022-08-12T10:58:32.190Z,26.45
2022-08-12T11:00:29.034Z,26.53
2022-08-12T11:00:35.701Z,26.62
2022-08-12T11:04:17.455Z,26.58
2022-08-12T11:04:19.379Z,26.74
2022-08-12T11:04:28.358Z,26.65
2022-08-12T11:04:44.807Z,26.74
2022-08-12T11:07:06.569Z,26.77
2022-08-12T11:07:07.086Z,26.77
2022-08-12T11:08:37.895Z,26.89
2022-08-12T11:08:38.073Z,26.89
2022-08-12T11:09:51.278Z,26.92
2022-08-12T11:10:31.334Z,27.00
2022-08-12T11:12:36.914Z,27.00
2022-08-12T11:12:56.972Z,27.10
2022-08-12T11:13:46.097Z,27.11
2022-08-12T11:14:49.997Z,27.26
2022-08-12T11:16:02.649Z,27.36
2022-08-12T11:16:30.847Z,27.37
2022-08-12T11:17:34.317Z,27.44
2022-08-12T11:18:30.701Z,27.54
2022-08-12T11:19:30.642Z,27.64
2022-08-12T11:20:31.354Z,27.64
2022-08-12T11:21:51.452Z,27.70
2022-08-12T11:22:30.421Z,27.82
2022-08-12T11:23:37.210Z,27.83
2022-08-12T11:24:32.349Z,27.82
2022-08-12T11:25:55.992Z,27.90
2022-08-12T11:26:37.314Z,27.93
2022-08-12T11:28:36.897Z,27.96
2022-08-12T11:30:02.018Z,27.92
2022-08-12T11:30:34.301Z,27.93
2022-08-12T11:31:40.666Z,28.00
2022-08-12T11:32:39.083Z,28.02
2022-08-12T11:34:04.656Z,28.10
2022-08-12T11:34:52.663Z,28.10
2022-08-12T11:35:33.948Z,28.11
2022-08-12T11:36:39.364Z,28.17
2022-08-12T11:37:57.982Z,28.27
2022-08-12T11:38:33.710Z,28.29
2022-08-12T11:40:02.995Z,28.20
2022-08-12T11:40:33.562Z,28.27
2022-08-12T11:41:33.491Z,28.29
2022-08-12T11:42:33.420Z,28.30
2022-08-12T11:43:33.354Z,28.44
2022-08-12T11:44:42.917Z,28.49
2022-08-12T11:45:39.016Z,28.54
2022-08-12T11:46:33.142Z,28.51
2022-08-12T11:47:33.072Z,28.52
2022-08-12T11:48:51.323Z,28.51
2022-08-12T11:49:32.939Z,28.67
2022-08-12T11:50:32.922Z,28.66
2022-08-12T11:51:36.561Z,28.74
2022-08-12T11:52:56.790Z,28.70
2022-08-12T11:53:57.032Z,28.62
2022-08-12T11:54:33.508Z,28.62
2022-08-12T11:55:32.511Z,28.47
2022-08-12T11:56:38.615Z,28.37
2022-08-12T11:58:34.154Z,28.23
2022-08-12T12:00:11.699Z,28.25
2022-08-12T12:02:02.421Z,28.08
2022-08-12T12:02:32.107Z,28.07
2022-08-12T12:03:43.741Z,27.93
2022-08-12T12:04:32.016Z,27.78
2022-08-12T12:05:41.969Z,27.65
2022-08-12T12:06:31.745Z,27.67
2022-08-12T12:08:36.268Z,27.60
2022-08-12T12:08:38.950Z,27.58
2022-08-12T12:09:31.532Z,27.64
2022-08-12T12:10:31.460Z,27.52
2022-08-12T12:11:48.693Z,27.60
2022-08-12T12:12:31.319Z,27.60
2022-08-12T12:14:07.394Z,27.59
2022-08-12T12:14:38.121Z,27.58
2022-08-12T12:15:41.148Z,27.64
2022-08-12T12:16:31.039Z,27.64
2022-08-12T12:17:38.240Z,27.70
2022-08-12T12:18:31.276Z,27.68
2022-08-12T12:19:39.776Z,27.74
2022-08-12T12:20:30.758Z,27.73
2022-08-12T12:21:48.636Z,27.68
2022-08-12T12:22:30.987Z,27.73
2022-08-12T12:23:32.612Z,27.93
2022-08-12T12:24:30.482Z,28.07
2022-08-12T12:25:59.409Z,28.10
2022-08-12T12:26:35.500Z,28.35
2022-08-12T12:27:40.177Z,28.54
2022-08-12T12:28:37.875Z,28.76
2022-08-12T12:30:13.503Z,28.85
2022-08-12T12:30:30.457Z,28.82
2022-08-12T12:32:11.126Z,28.79
2022-08-12T12:32:30.994Z,28.82
2022-08-12T12:33:57.124Z,28.69
2022-08-12T12:34:30.418Z,28.66
2022-08-12T12:36:06.459Z,28.63
2022-08-12T12:36:30.916Z,28.63
2022-08-12T12:38:05.311Z,28.51
2022-08-12T12:38:29.502Z,28.39
2022-08-12T12:39:29.458Z,28.33
2022-08-12T12:40:30.093Z,28.26
2022-08-12T12:42:43.102Z,28.70
2022-08-12T12:42:45.646Z,28.27
2022-08-12T12:43:42.785Z,29.23
2022-08-12T12:44:38.755Z,29.84
2022-08-12T12:45:32.434Z,30.59
2022-08-12T12:46:28.945Z,30.90
2022-08-12T12:47:30.294Z,31.10
2022-08-12T12:48:28.800Z,32.12
2022-08-12T12:49:28.728Z,33.11
2022-08-12T12:50:35.632Z,34.08
2022-08-12T12:51:49.399Z,35.02
2022-08-12T12:52:28.520Z,35.74
2022-08-12T12:54:06.917Z,36.52
2022-08-12T12:54:29.152Z,37.29
2022-08-12T12:55:35.643Z,37.15
2022-08-12T12:56:34.201Z,36.99